Nearby METAR Reports

 

CYOW - Ottawa Intl, Ontario, Canada
Distance from station: N 33km
Updated: 19/04/2018 15:00
Light snow, Overcast
Light snow, Overcast
 Wind from NW
Wind: NW 30 km/h
Temperature: 3°C
Wind Chill: -3°C
Dew Point: -4°C
Humidity: 60%
Barometer: 29.85 inHg , 1010.8 hPa
Summary: Light Snow
Clouds: Overcast
Visibility: 24 km
Cloud details: Overcast 1006 m
2018/04/19 19:00 CYOW 191900Z 31016KT 15SM -SN OVC033 03/M04 A2985 RMK SC8 SLP113
CYGK - Kingston Arpt, Ontario, Canada
Distance from station: SW 117km
Updated: 19/04/2018 15:00
Light snow, Showers, Overcast
Light snow, Showers, Overcast
 Wind from NNW
Wind: NNW 26 km/h, Gust: 37 km/h
Temperature: 3°C
Wind Chill: -2°C
Dew Point: -5°C
Humidity: 56%
Barometer: 29.87 inHg , 1011.5 hPa
Summary: Light snow, Showers
Clouds: Overcast
Visibility: 24 km
Cloud details: Partly cloudy 792 m
Overcast 1341 m
2018/04/19 19:00 CYGK 191900Z 34014G20KT 15SM -SHSN SCT026 OVC044 03/M05 A2987 RMK CU3SC5 SLP122
KMSS - Massena, New York, USA
Distance from station: E 62km
Updated: 19/04/2018 15:13
Overcast
Overcast
 Wind from WNW
Wind: WNW 20 km/h, Gust: 35 km/h
Temperature: 3°C
Wind Chill: -2°C
Dew Point: -2°C
Humidity: 70%
Barometer: 29.83 inHg , 1010.2 hPa
Clouds: Overcast
Visibility: 16 km
Cloud details: Mostly cloudy 945 m
Overcast 1158 m
2018/04/19 19:13 KMSS 191913Z AUTO 29011G19KT 10SM BKN031 OVC038 03/M02 A2983 RMK AO2 T00331017